Login to view Products
 
Saturday, August 08, 2020 (09:03 UTC)
Sharjah International Airport
ICAO: OMSJ
IATA: SHJ
  • METAR OMSJ 080900Z 26010KT 230V290 CAVOK 39/25 Q0994 NOSIG=
  • TAF OMSJ 080450Z 0806/0912 23007KT 8000 NSC BECMG 0807/0809 29012KT BECMG 0815/0817 VRB02KT PROB30 0900/0904 4000 HZ BKN012 BECMG 0907/0909 30012KT=
D:\Input Parser\Destinations\Final\04\OMSJL06120450472232702.txt
1